createdAt,value
2022-12-05T00:04:53.046Z,100003.19
2022-12-05T00:09:54.498Z,100005.22
2022-12-05T00:14:56.089Z,100008.53
2022-12-05T00:19:57.471Z,100010.22
2022-12-05T00:24:58.857Z,99985.22
2022-12-05T00:30:00.784Z,100007.84
2022-12-05T00:35:02.098Z,100030.41
2022-12-05T00:40:03.812Z,100034.41
2022-12-05T00:45:05.719Z,100033.66
2022-12-05T00:50:07.945Z,100038.56
2022-12-05T00:55:09.651Z,100040.41
2022-12-05T01:00:11.475Z,100040.09
2022-12-05T01:05:12.797Z,100052.50
2022-12-05T01:10:14.200Z,100063.47
2022-12-05T01:15:15.511Z,100070.00
2022-12-05T01:20:17.036Z,100077.41
2022-12-05T01:25:18.386Z,100077.31
2022-12-05T01:30:21.185Z,100070.28
2022-12-05T01:35:22.623Z,100075.28
2022-12-05T01:40:24.220Z,100079.53
2022-12-05T01:45:39.258Z,100086.41
2022-12-05T01:50:41.116Z,100074.69
2022-12-05T01:55:42.719Z,100089.13
2022-12-05T02:00:44.769Z,100090.19
2022-12-05T02:05:49.968Z,100070.94
2022-12-05T02:10:54.365Z,100090.91
2022-12-05T02:16:27.614Z,100087.53
2022-12-05T02:21:40.735Z,100093.38
2022-12-05T02:26:55.740Z,100092.44
2022-12-05T02:32:24.524Z,100103.88
2022-12-05T02:37:39.009Z,100100.84
2022-12-05T02:42:51.495Z,100100.09
2022-12-05T02:47:54.357Z,100089.53
2022-12-05T02:53:00.441Z,100078.66
2022-12-05T02:58:06.223Z,100088.50
2022-12-05T03:03:14.409Z,100081.72
2022-12-05T03:08:21.394Z,100071.72
2022-12-05T03:13:39.406Z,100085.75
2022-12-05T03:18:58.417Z,100096.31
2022-12-05T03:24:19.642Z,100108.09
2022-12-05T03:29:36.363Z,100107.31
2022-12-05T03:34:49.571Z,100106.19
2022-12-05T03:40:03.734Z,100101.13
2022-12-05T03:45:12.579Z,100127.56
2022-12-05T03:50:35.002Z,100121.63
2022-12-05T03:55:40.109Z,100133.84
2022-12-05T04:00:46.485Z,100138.28
2022-12-05T04:05:52.891Z,100125.91
2022-12-05T04:11:00.873Z,100127.22
2022-12-05T04:16:28.965Z,100129.75
2022-12-05T04:21:38.672Z,100122.28
2022-12-05T04:26:46.699Z,100148.75
2022-12-05T04:31:52.795Z,100141.63
2022-12-05T04:36:59.850Z,100140.19
2022-12-05T04:42:06.313Z,100153.44
2022-12-05T04:47:10.758Z,100162.63
2022-12-05T04:52:13.155Z,100162.63
2022-12-05T04:57:22.045Z,100155.16
2022-12-05T05:02:43.521Z,100175.22
2022-12-05T05:07:47.838Z,100177.19
2022-12-05T05:12:49.165Z,100170.19
2022-12-05T05:17:50.672Z,100178.09
2022-12-05T05:22:56.911Z,100177.47
2022-12-05T05:27:58.296Z,100184.56
2022-12-05T05:33:00.397Z,100153.63
2022-12-05T05:38:01.728Z,100203.19
2022-12-05T05:43:03.194Z,100182.69
2022-12-05T05:48:04.855Z,100187.81
2022-12-05T05:53:06.142Z,100194.09
2022-12-05T05:58:08.703Z,100181.09
2022-12-05T06:03:10.289Z,100195.75
2022-12-05T06:08:11.826Z,100164.84
2022-12-05T06:13:13.370Z,100190.56
2022-12-05T06:18:14.851Z,100183.41
2022-12-05T06:23:16.346Z,100198.31
2022-12-05T06:28:19.239Z,100203.69
2022-12-05T06:33:21.031Z,100208.59
2022-12-05T06:38:22.357Z,100211.97
2022-12-05T06:43:23.883Z,100200.06
2022-12-05T06:48:25.306Z,100215.22
2022-12-05T06:53:28.573Z,100232.31
2022-12-05T06:58:31.045Z,100228.59
2022-12-05T07:03:32.403Z,100231.22
2022-12-05T07:08:34.389Z,100235.19
2022-12-05T07:13:35.749Z,100243.59
2022-12-05T07:18:37.131Z,100225.16
2022-12-05T07:23:38.614Z,100243.69
2022-12-05T07:28:39.965Z,100252.88
2022-12-05T07:33:41.773Z,100262.91
2022-12-05T07:38:44.067Z,100269.47
2022-12-05T07:43:45.478Z,100261.56
2022-12-05T07:48:50.473Z,100284.19
2022-12-05T07:53:51.792Z,100284.25
2022-12-05T07:58:54.006Z,100275.50
2022-12-05T08:03:58.148Z,100286.25
2022-12-05T08:08:59.474Z,100308.41
2022-12-05T08:14:00.883Z,100302.69
2022-12-05T08:19:08.323Z,100309.84
2022-12-05T08:24:10.551Z,100305.16
2022-12-05T08:29:14.413Z,100308.72
2022-12-05T08:34:17.616Z,100294.34
2022-12-05T08:39:19.723Z,100312.16
2022-12-05T08:44:21.079Z,100330.00
2022-12-05T08:49:22.469Z,100341.72
2022-12-05T08:54:23.825Z,100336.38
2022-12-05T08:59:25.262Z,100339.78
2022-12-05T09:04:26.960Z,100335.75
2022-12-05T09:09:28.340Z,100342.81
2022-12-05T09:14:32.862Z,100351.94
2022-12-05T09:19:34.267Z,100359.94
2022-12-05T09:24:35.668Z,100360.75
2022-12-05T09:29:37.385Z,100359.44
2022-12-05T09:34:39.247Z,100375.38
2022-12-05T09:39:40.704Z,100377.63
2022-12-05T09:45:17.452Z,100372.97
2022-12-05T09:50:28.346Z,100376.00
2022-12-05T09:55:38.224Z,100375.91
2022-12-05T10:00:40.034Z,100365.91
2022-12-05T10:06:00.028Z,100375.44
2022-12-05T10:11:06.673Z,100356.19
2022-12-05T10:16:17.159Z,100355.50
2022-12-05T10:21:24.976Z,100369.81
2022-12-05T10:26:32.554Z,100364.53
2022-12-05T10:31:36.987Z,100356.72
2022-12-05T10:36:38.356Z,100352.50
2022-12-05T10:41:39.723Z,100353.63
2022-12-05T10:46:41.372Z,100353.72
2022-12-05T10:51:43.112Z,100340.16
2022-12-05T10:56:52.797Z,100323.72
2022-12-05T11:02:00.906Z,100330.97
2022-12-05T11:07:05.380Z,100337.91
2022-12-05T11:12:17.684Z,100332.47
2022-12-05T11:17:40.076Z,100342.66
2022-12-05T11:22:45.762Z,100339.78
2022-12-05T11:27:49.887Z,100338.16
2022-12-05T11:32:51.690Z,100348.13
2022-12-05T11:38:00.161Z,100351.75
2022-12-05T11:43:14.778Z,100350.91
2022-12-05T11:48:29.702Z,100348.38
2022-12-05T11:53:52.039Z,100355.09
2022-12-05T11:58:58.913Z,100349.72
2022-12-05T12:04:00.275Z,100347.25
2022-12-05T12:09:23.235Z,100339.81
2022-12-05T12:14:47.258Z,100324.34
2022-12-05T12:20:07.463Z,100328.97
2022-12-05T12:25:30.669Z,100348.00
2022-12-05T12:30:50.755Z,100334.19
2022-12-05T12:36:01.399Z,100342.00
2022-12-05T12:41:22.398Z,100350.94
2022-12-05T12:46:43.379Z,100345.09
2022-12-05T12:51:52.699Z,100329.88
2022-12-05T12:57:26.243Z,100340.34
2022-12-05T13:02:47.299Z,100363.75
2022-12-05T13:07:53.925Z,100332.69
2022-12-05T13:12:57.788Z,100345.44
2022-12-05T13:18:01.880Z,100356.19
2022-12-05T13:23:07.853Z,100350.91
2022-12-05T13:28:47.516Z,100341.34
2022-12-05T13:33:50.640Z,100345.16
2022-12-05T13:39:20.436Z,100350.25
2022-12-05T13:44:33.181Z,100347.59
2022-12-05T13:49:46.325Z,100350.38
2022-12-05T13:55:03.891Z,100360.94
2022-12-05T14:00:08.108Z,100314.47
2022-12-05T14:05:17.350Z,100352.38
2022-12-05T14:10:27.826Z,100361.91
2022-12-05T14:15:32.288Z,100363.47
2022-12-05T14:20:49.305Z,100374.53
2022-12-05T14:26:15.533Z,100366.78
2022-12-05T14:31:25.817Z,100343.56
2022-12-05T14:36:30.810Z,100357.84
2022-12-05T14:41:35.408Z,100368.19
2022-12-05T14:46:36.999Z,100366.66
2022-12-05T14:51:41.360Z,100376.88
2022-12-05T14:56:46.003Z,100359.19
2022-12-05T15:01:52.032Z,100364.38
2022-12-05T15:07:02.758Z,100334.72
2022-12-05T15:12:09.796Z,100316.03
2022-12-05T15:17:17.143Z,100360.28
2022-12-05T15:22:23.093Z,100368.81
2022-12-05T15:27:24.597Z,100369.59
2022-12-05T15:32:27.606Z,100351.88
2022-12-05T15:38:23.846Z,100375.09
2022-12-05T15:43:30.076Z,100369.44
2022-12-05T15:48:31.426Z,100352.91
2022-12-05T15:53:47.372Z,100353.59
2022-12-05T15:58:59.443Z,100374.25
2022-12-05T16:04:45.299Z,100379.44
2022-12-05T16:09:47.298Z,100338.81
2022-12-05T16:15:01.167Z,100395.09
2022-12-05T16:20:21.876Z,100382.84
2022-12-05T16:25:35.173Z,100386.25
2022-12-05T16:30:37.438Z,100388.72
2022-12-05T16:35:42.076Z,100385.59
2022-12-05T16:40:49.575Z,100385.94
2022-12-05T16:45:53.209Z,100381.22
2022-12-05T16:51:13.157Z,100386.41
2022-12-05T16:56:19.783Z,100381.03
2022-12-05T17:01:23.962Z,100382.28
2022-12-05T17:06:26.404Z,100392.88
2022-12-05T17:11:34.023Z,100396.84
2022-12-05T17:16:35.461Z,100399.84
2022-12-05T17:21:37.980Z,100406.25
2022-12-05T17:26:39.356Z,100402.91
2022-12-05T17:31:40.937Z,100408.19
2022-12-05T17:36:45.890Z,100406.22
2022-12-05T17:41:47.520Z,100406.41
2022-12-05T17:46:49.307Z,100401.38
2022-12-05T17:52:20.496Z,100422.53
2022-12-05T17:57:15.111Z,100417.41
2022-12-05T18:02:18.797Z,100419.00
2022-12-05T18:07:20.148Z,100410.94
2022-12-05T18:12:21.828Z,100427.63
2022-12-05T18:17:24.775Z,100390.78
2022-12-05T18:22:27.413Z,100422.50
2022-12-05T18:27:30.363Z,100422.06
2022-12-05T18:32:31.848Z,100403.44
2022-12-05T18:37:36.416Z,100404.78
2022-12-05T18:42:37.835Z,100418.22
2022-12-05T18:47:39.215Z,100418.50
2022-12-05T18:52:40.610Z,100410.06
2022-12-05T18:57:43.015Z,100418.50
2022-12-05T19:02:44.508Z,100422.69
2022-12-05T19:07:46.446Z,100412.84
2022-12-05T19:12:47.822Z,100429.06
2022-12-05T19:17:49.158Z,100417.94
2022-12-05T19:22:54.112Z,100417.94
2022-12-05T19:27:57.702Z,100420.22
2022-12-05T19:32:59.087Z,100414.03
2022-12-05T19:38:00.405Z,100431.91
2022-12-05T19:43:03.460Z,100424.78
2022-12-05T19:48:05.050Z,100438.06
2022-12-05T19:53:06.369Z,100420.03
2022-12-05T19:58:07.683Z,100430.41
2022-12-05T20:03:12.099Z,100436.28
2022-12-05T20:08:13.847Z,100433.38
2022-12-05T20:13:38.507Z,100418.84
2022-12-05T20:18:37.736Z,100439.44
2022-12-05T20:23:39.298Z,100431.44
2022-12-05T20:28:41.487Z,100436.34
2022-12-05T20:33:43.661Z,100437.59
2022-12-05T20:38:45.621Z,100424.88
2022-12-05T20:43:48.763Z,100442.50
2022-12-05T20:48:51.384Z,100440.63
2022-12-05T20:53:53.051Z,100432.22
2022-12-05T20:58:57.513Z,100435.19
2022-12-05T21:03:59.146Z,100420.19
2022-12-05T21:09:01.407Z,100424.94
2022-12-05T21:14:05.009Z,100432.31
2022-12-05T21:19:06.476Z,100416.78
2022-12-05T21:24:09.685Z,100426.66
2022-12-05T21:29:11.054Z,100433.44
2022-12-05T21:34:15.646Z,100432.25
2022-12-05T21:39:17.160Z,100433.28
2022-12-05T21:44:19.852Z,100422.53
2022-12-05T21:49:21.159Z,100425.16
2022-12-05T21:54:22.473Z,100425.78
2022-12-05T21:59:23.859Z,100427.97
2022-12-05T22:04:25.169Z,100426.59
2022-12-05T22:09:26.446Z,100416.91
2022-12-05T22:14:27.810Z,100425.09
2022-12-05T22:19:29.196Z,100421.31
2022-12-05T22:24:30.488Z,100434.56
2022-12-05T22:29:31.810Z,100426.91
2022-12-05T22:34:33.178Z,100427.97
2022-12-05T22:39:34.516Z,100413.22
2022-12-05T22:44:35.819Z,100409.03
2022-12-05T22:49:37.126Z,100405.47
2022-12-05T22:54:39.067Z,100427.88
2022-12-05T22:59:40.401Z,100412.09
2022-12-05T23:04:41.671Z,100412.00
2022-12-05T23:09:45.475Z,100403.81
2022-12-05T23:14:46.738Z,100407.22
2022-12-05T23:19:48.121Z,100405.88
2022-12-05T23:24:49.430Z,100399.84
2022-12-05T23:29:50.830Z,100402.84
2022-12-05T23:34:52.234Z,100401.34
2022-12-05T23:39:53.565Z,100398.97
2022-12-05T23:44:54.929Z,100391.78
2022-12-05T23:49:56.391Z,100406.72
2022-12-05T23:54:57.823Z,100386.03
2022-12-05T23:59:59.643Z,100405.69
